sensor_id;sensor_type;location;lat;lon;timestamp;temperature;humidity
13436;DHT22;6790;49.520;8.504;2023-06-26T00:02:03;18.70;99.90
13436;DHT22;6790;49.520;8.504;2023-06-26T00:04:29;18.60;99.90
13436;DHT22;6790;49.520;8.504;2023-06-26T00:06:54;18.60;99.90
13436;DHT22;6790;49.520;8.504;2023-06-26T00:09:20;18.50;99.90
13436;DHT22;6790;49.520;8.504;2023-06-26T00:11:46;18.50;99.90
13436;DHT22;6790;49.520;8.504;2023-06-26T00:14:11;18.40;99.90
13436;DHT22;6790;49.520;8.504;2023-06-26T00:16:37;18.30;99.90
13436;DHT22;6790;49.520;8.504;2023-06-26T00:19:03;18.30;99.90
13436;DHT22;6790;49.520;8.504;2023-06-26T00:21:28;18.30;99.90
13436;DHT22;6790;49.520;8.504;2023-06-26T00:23:54;18.30;99.90
13436;DHT22;6790;49.520;8.504;2023-06-26T00:26:20;18.30;99.90
13436;DHT22;6790;49.520;8.504;2023-06-26T00:28:45;18.30;99.90
13436;DHT22;6790;49.520;8.504;2023-06-26T00:31:11;18.30;99.90
13436;DHT22;6790;49.520;8.504;2023-06-26T00:33:37;18.30;99.90
13436;DHT22;6790;49.520;8.504;2023-06-26T00:36:02;18.30;99.90
13436;DHT22;6790;49.520;8.504;2023-06-26T00:38:28;18.20;99.90
13436;DHT22;6790;49.520;8.504;2023-06-26T00:40:54;18.30;99.90
13436;DHT22;6790;49.520;8.504;2023-06-26T00:43:21;18.20;99.90
13436;DHT22;6790;49.520;8.504;2023-06-26T00:45:47;18.10;99.90
13436;DHT22;6790;49.520;8.504;2023-06-26T00:48:13;18.00;99.90
13436;DHT22;6790;49.520;8.504;2023-06-26T00:50:39;18.00;99.90
13436;DHT22;6790;49.520;8.504;2023-06-26T00:53:07;17.90;99.90
13436;DHT22;6790;49.520;8.504;2023-06-26T00:55:34;17.90;99.90
13436;DHT22;6790;49.520;8.504;2023-06-26T00:58:00;17.90;99.90
13436;DHT22;6790;49.520;8.504;2023-06-26T01:00:26;17.90;99.90
13436;DHT22;6790;49.520;8.504;2023-06-26T01:02:51;17.80;99.90
13436;DHT22;6790;49.520;8.504;2023-06-26T01:05:17;17.90;99.90
13436;DHT22;6790;49.520;8.504;2023-06-26T01:07:50;17.70;99.90
13436;DHT22;6790;49.520;8.504;2023-06-26T01:10:16;17.60;99.90
13436;DHT22;6790;49.520;8.504;2023-06-26T01:12:42;17.60;99.90
13436;DHT22;6790;49.520;8.504;2023-06-26T01:15:08;17.60;99.90
13436;DHT22;6790;49.520;8.504;2023-06-26T01:17:36;17.50;99.90
13436;DHT22;6790;49.520;8.504;2023-06-26T01:20:05;17.50;99.90
13436;DHT22;6790;49.520;8.504;2023-06-26T01:28:39;17.50;99.90
13436;DHT22;6790;49.520;8.504;2023-06-26T01:31:07;17.40;99.90
13436;DHT22;6790;49.520;8.504;2023-06-26T01:33:34;17.30;99.90
13436;DHT22;6790;49.520;8.504;2023-06-26T01:36:00;17.30;99.90
13436;DHT22;6790;49.520;8.504;2023-06-26T01:38:26;17.30;99.90
13436;DHT22;6790;49.520;8.504;2023-06-26T01:40:52;17.20;99.90
13436;DHT22;6790;49.520;8.504;2023-06-26T01:43:30;17.20;99.90
13436;DHT22;6790;49.520;8.504;2023-06-26T01:46:22;17.20;99.90
13436;DHT22;6790;49.520;8.504;2023-06-26T01:51:38;17.20;99.90
13436;DHT22;6790;49.520;8.504;2023-06-26T01:54:10;17.20;99.90
13436;DHT22;6790;49.520;8.504;2023-06-26T01:56:40;17.10;99.90
13436;DHT22;6790;49.520;8.504;2023-06-26T01:59:07;17.00;99.90
13436;DHT22;6790;49.520;8.504;2023-06-26T02:01:34;17.00;99.90
13436;DHT22;6790;49.520;8.504;2023-06-26T02:04:00;17.10;99.90
13436;DHT22;6790;49.520;8.504;2023-06-26T02:06:26;17.10;99.90
13436;DHT22;6790;49.520;8.504;2023-06-26T02:08:51;17.10;99.90
13436;DHT22;6790;49.520;8.504;2023-06-26T02:11:17;17.00;99.90
13436;DHT22;6790;49.520;8.504;2023-06-26T02:13:43;16.90;99.90
13436;DHT22;6790;49.520;8.504;2023-06-26T02:16:08;16.90;99.90
13436;DHT22;6790;49.520;8.504;2023-06-26T02:18:34;16.80;99.90
13436;DHT22;6790;49.520;8.504;2023-06-26T02:21:00;16.80;99.90
13436;DHT22;6790;49.520;8.504;2023-06-26T02:23:27;16.80;99.90
13436;DHT22;6790;49.520;8.504;2023-06-26T02:25:52;16.90;99.90
13436;DHT22;6790;49.520;8.504;2023-06-26T02:28:18;16.80;99.90
13436;DHT22;6790;49.520;8.504;2023-06-26T02:30:44;16.70;99.90
13436;DHT22;6790;49.520;8.504;2023-06-26T02:33:09;16.70;99.90
13436;DHT22;6790;49.520;8.504;2023-06-26T02:35:35;16.70;99.90
13436;DHT22;6790;49.520;8.504;2023-06-26T02:38:01;16.60;99.90
13436;DHT22;6790;49.520;8.504;2023-06-26T02:40:26;16.60;99.90
13436;DHT22;6790;49.520;8.504;2023-06-26T02:42:52;16.50;99.90
13436;DHT22;6790;49.520;8.504;2023-06-26T02:45:18;16.50;99.90
13436;DHT22;6790;49.520;8.504;2023-06-26T02:47:43;16.50;99.90
13436;DHT22;6790;49.520;8.504;2023-06-26T02:50:09;16.50;99.90
13436;DHT22;6790;49.520;8.504;2023-06-26T02:52:35;16.50;99.90
13436;DHT22;6790;49.520;8.504;2023-06-26T02:55:01;16.60;99.90
13436;DHT22;6790;49.520;8.504;2023-06-26T02:57:26;16.60;99.90
13436;DHT22;6790;49.520;8.504;2023-06-26T02:59:52;16.50;99.90
13436;DHT22;6790;49.520;8.504;2023-06-26T03:02:18;16.60;99.90
13436;DHT22;6790;49.520;8.504;2023-06-26T03:04:43;16.60;99.90
13436;DHT22;6790;49.520;8.504;2023-06-26T03:07:09;16.70;99.90
13436;DHT22;6790;49.520;8.504;2023-06-26T03:09:34;16.70;99.90
13436;DHT22;6790;49.520;8.504;2023-06-26T03:12:00;16.70;99.90
13436;DHT22;6790;49.520;8.504;2023-06-26T03:14:26;16.80;99.90
13436;DHT22;6790;49.520;8.504;2023-06-26T03:16:52;16.90;99.90
13436;DHT22;6790;49.520;8.504;2023-06-26T03:19:18;17.00;99.90
13436;DHT22;6790;49.520;8.504;2023-06-26T03:21:44;17.10;99.90
13436;DHT22;6790;49.520;8.504;2023-06-26T03:24:10;17.00;99.90
13436;DHT22;6790;49.520;8.504;2023-06-26T03:26:35;17.10;99.90
13436;DHT22;6790;49.520;8.504;2023-06-26T03:29:01;17.00;99.90
13436;DHT22;6790;49.520;8.504;2023-06-26T03:31:27;17.00;99.90
13436;DHT22;6790;49.520;8.504;2023-06-26T03:33:52;17.00;99.90
13436;DHT22;6790;49.520;8.504;2023-06-26T03:36:18;17.00;99.90
13436;DHT22;6790;49.520;8.504;2023-06-26T03:38:44;17.00;99.90
13436;DHT22;6790;49.520;8.504;2023-06-26T03:41:09;17.00;99.90
13436;DHT22;6790;49.520;8.504;2023-06-26T03:43:35;17.10;99.90
13436;DHT22;6790;49.520;8.504;2023-06-26T03:46:01;17.10;99.90
13436;DHT22;6790;49.520;8.504;2023-06-26T03:48:26;17.10;99.90
13436;DHT22;6790;49.520;8.504;2023-06-26T03:50:53;17.10;99.90
13436;DHT22;6790;49.520;8.504;2023-06-26T03:53:18;17.20;99.90
13436;DHT22;6790;49.520;8.504;2023-06-26T03:55:44;17.30;99.90
13436;DHT22;6790;49.520;8.504;2023-06-26T03:58:10;17.40;99.90
13436;DHT22;6790;49.520;8.504;2023-06-26T04:00:35;17.50;99.90
13436;DHT22;6790;49.520;8.504;2023-06-26T04:03:01;17.80;99.90
13436;DHT22;6790;49.520;8.504;2023-06-26T04:05:28;18.00;99.90
13436;DHT22;6790;49.520;8.504;2023-06-26T04:07:54;18.20;99.90
13436;DHT22;6790;49.520;8.504;2023-06-26T04:10:19;18.20;99.90
13436;DHT22;6790;49.520;8.504;2023-06-26T04:12:47;18.30;99.90
13436;DHT22;6790;49.520;8.504;2023-06-26T04:15:13;18.40;99.90
13436;DHT22;6790;49.520;8.504;2023-06-26T04:17:39;18.40;99.90
13436;DHT22;6790;49.520;8.504;2023-06-26T04:20:05;18.40;99.90
13436;DHT22;6790;49.520;8.504;2023-06-26T04:22:34;18.50;99.90
13436;DHT22;6790;49.520;8.504;2023-06-26T04:25:03;18.60;99.90
13436;DHT22;6790;49.520;8.504;2023-06-26T04:27:29;18.60;99.90
13436;DHT22;6790;49.520;8.504;2023-06-26T04:29:55;18.50;99.90
13436;DHT22;6790;49.520;8.504;2023-06-26T04:32:21;18.50;99.90
13436;DHT22;6790;49.520;8.504;2023-06-26T04:34:47;18.50;99.90
13436;DHT22;6790;49.520;8.504;2023-06-26T04:37:13;18.60;99.90
13436;DHT22;6790;49.520;8.504;2023-06-26T04:39:42;18.90;99.90
13436;DHT22;6790;49.520;8.504;2023-06-26T04:42:08;19.10;99.90
13436;DHT22;6790;49.520;8.504;2023-06-26T04:44:34;19.30;99.90
13436;DHT22;6790;49.520;8.504;2023-06-26T04:47:00;19.40;99.90
13436;DHT22;6790;49.520;8.504;2023-06-26T04:49:26;19.50;99.90
13436;DHT22;6790;49.520;8.504;2023-06-26T04:51:53;19.40;99.90
13436;DHT22;6790;49.520;8.504;2023-06-26T04:54:20;19.50;99.90
13436;DHT22;6790;49.520;8.504;2023-06-26T04:56:45;19.60;99.90
13436;DHT22;6790;49.520;8.504;2023-06-26T04:59:12;19.60;99.90
13436;DHT22;6790;49.520;8.504;2023-06-26T05:01:40;19.80;99.90
13436;DHT22;6790;49.520;8.504;2023-06-26T05:04:06;19.80;99.90
13436;DHT22;6790;49.520;8.504;2023-06-26T05:06:32;19.90;99.90
13436;DHT22;6790;49.520;8.504;2023-06-26T05:08:58;19.90;99.90
13436;DHT22;6790;49.520;8.504;2023-06-26T05:11:24;20.00;99.90
13436;DHT22;6790;49.520;8.504;2023-06-26T05:13:50;20.20;99.90
13436;DHT22;6790;49.520;8.504;2023-06-26T05:16:16;20.20;99.90
13436;DHT22;6790;49.520;8.504;2023-06-26T05:18:42;20.30;99.90
13436;DHT22;6790;49.520;8.504;2023-06-26T05:21:08;20.40;99.90
13436;DHT22;6790;49.520;8.504;2023-06-26T05:23:34;20.60;99.90
13436;DHT22;6790;49.520;8.504;2023-06-26T05:26:01;20.70;99.90
13436;DHT22;6790;49.520;8.504;2023-06-26T05:28:28;20.80;99.90
13436;DHT22;6790;49.520;8.504;2023-06-26T05:30:57;21.00;99.90
13436;DHT22;6790;49.520;8.504;2023-06-26T05:33:24;21.00;99.90
13436;DHT22;6790;49.520;8.504;2023-06-26T05:35:52;21.20;99.90
13436;DHT22;6790;49.520;8.504;2023-06-26T05:38:18;21.30;99.90
13436;DHT22;6790;49.520;8.504;2023-06-26T05:40:45;21.40;99.90
13436;DHT22;6790;49.520;8.504;2023-06-26T05:43:11;21.60;99.90
13436;DHT22;6790;49.520;8.504;2023-06-26T05:45:37;21.60;99.90
13436;DHT22;6790;49.520;8.504;2023-06-26T05:48:03;21.60;99.90
13436;DHT22;6790;49.520;8.504;2023-06-26T05:50:29;21.70;99.90
13436;DHT22;6790;49.520;8.504;2023-06-26T05:52:55;21.70;99.90
13436;DHT22;6790;49.520;8.504;2023-06-26T05:55:21;21.90;99.90
13436;DHT22;6790;49.520;8.504;2023-06-26T05:57:48;21.90;99.90
13436;DHT22;6790;49.520;8.504;2023-06-26T06:00:15;22.00;99.90
13436;DHT22;6790;49.520;8.504;2023-06-26T06:02:42;22.10;99.90
13436;DHT22;6790;49.520;8.504;2023-06-26T06:05:08;22.10;99.90
13436;DHT22;6790;49.520;8.504;2023-06-26T06:07:35;22.30;99.90
13436;DHT22;6790;49.520;8.504;2023-06-26T06:10:03;22.30;99.90
13436;DHT22;6790;49.520;8.504;2023-06-26T06:12:29;22.40;99.70
13436;DHT22;6790;49.520;8.504;2023-06-26T06:14:56;22.50;99.20
13436;DHT22;6790;49.520;8.504;2023-06-26T06:17:22;22.50;98.70
13436;DHT22;6790;49.520;8.504;2023-06-26T06:19:48;22.60;99.40
13436;DHT22;6790;49.520;8.504;2023-06-26T06:22:14;22.80;98.50
13436;DHT22;6790;49.520;8.504;2023-06-26T06:24:41;22.90;98.40
13436;DHT22;6790;49.520;8.504;2023-06-26T06:27:07;22.90;97.90
13436;DHT22;6790;49.520;8.504;2023-06-26T06:29:33;23.10;97.30
13436;DHT22;6790;49.520;8.504;2023-06-26T06:31:58;23.20;96.50
13436;DHT22;6790;49.520;8.504;2023-06-26T06:34:24;23.40;95.80
13436;DHT22;6790;49.520;8.504;2023-06-26T06:36:50;23.50;95.50
13436;DHT22;6790;49.520;8.504;2023-06-26T06:39:16;23.60;94.60
13436;DHT22;6790;49.520;8.504;2023-06-26T06:41:42;23.70;94.90
13436;DHT22;6790;49.520;8.504;2023-06-26T06:44:07;23.80;93.80
13436;DHT22;6790;49.520;8.504;2023-06-26T06:46:33;24.00;93.50
13436;DHT22;6790;49.520;8.504;2023-06-26T06:48:59;24.20;93.50
13436;DHT22;6790;49.520;8.504;2023-06-26T06:51:26;24.20;91.50
13436;DHT22;6790;49.520;8.504;2023-06-26T06:53:51;24.30;91.60
13436;DHT22;6790;49.520;8.504;2023-06-26T06:56:17;24.40;91.00
13436;DHT22;6790;49.520;8.504;2023-06-26T06:58:43;24.60;90.30
13436;DHT22;6790;49.520;8.504;2023-06-26T07:01:11;24.70;87.70
13436;DHT22;6790;49.520;8.504;2023-06-26T07:03:37;24.80;89.70
13436;DHT22;6790;49.520;8.504;2023-06-26T07:06:03;24.90;87.70
13436;DHT22;6790;49.520;8.504;2023-06-26T07:08:29;24.90;87.60
13436;DHT22;6790;49.520;8.504;2023-06-26T07:10:55;25.00;85.30
13436;DHT22;6790;49.520;8.504;2023-06-26T07:13:22;25.10;84.80
13436;DHT22;6790;49.520;8.504;2023-06-26T07:15:48;25.30;84.60
13436;DHT22;6790;49.520;8.504;2023-06-26T07:18:14;25.40;81.50
13436;DHT22;6790;49.520;8.504;2023-06-26T07:20:40;25.40;84.80
13436;DHT22;6790;49.520;8.504;2023-06-26T07:23:06;25.50;83.20
13436;DHT22;6790;49.520;8.504;2023-06-26T07:25:32;25.60;85.30
13436;DHT22;6790;49.520;8.504;2023-06-26T07:27:58;25.60;81.90
13436;DHT22;6790;49.520;8.504;2023-06-26T07:30:24;25.70;79.10
13436;DHT22;6790;49.520;8.504;2023-06-26T07:32:50;25.80;80.50
13436;DHT22;6790;49.520;8.504;2023-06-26T07:35:16;25.70;81.50
13436;DHT22;6790;49.520;8.504;2023-06-26T07:37:42;25.70;79.80
13436;DHT22;6790;49.520;8.504;2023-06-26T07:40:08;25.90;82.60
13436;DHT22;6790;49.520;8.504;2023-06-26T07:42:34;26.10;81.40
13436;DHT22;6790;49.520;8.504;2023-06-26T07:45:00;26.20;78.80
13436;DHT22;6790;49.520;8.504;2023-06-26T07:47:26;26.10;79.70
13436;DHT22;6790;49.520;8.504;2023-06-26T07:49:51;26.10;77.10
13436;DHT22;6790;49.520;8.504;2023-06-26T07:52:19;26.30;78.20
13436;DHT22;6790;49.520;8.504;2023-06-26T07:54:44;26.50;78.00
13436;DHT22;6790;49.520;8.504;2023-06-26T07:57:11;26.60;77.50
13436;DHT22;6790;49.520;8.504;2023-06-26T07:59:38;26.70;79.50
13436;DHT22;6790;49.520;8.504;2023-06-26T08:02:04;26.70;80.70
13436;DHT22;6790;49.520;8.504;2023-06-26T08:04:30;26.80;80.70
13436;DHT22;6790;49.520;8.504;2023-06-26T08:06:58;26.80;78.30
13436;DHT22;6790;49.520;8.504;2023-06-26T08:09:26;26.90;78.40
13436;DHT22;6790;49.520;8.504;2023-06-26T08:11:53;27.00;74.20
13436;DHT22;6790;49.520;8.504;2023-06-26T08:14:20;26.90;80.90
13436;DHT22;6790;49.520;8.504;2023-06-26T08:16:46;27.40;74.60
13436;DHT22;6790;49.520;8.504;2023-06-26T08:19:16;27.70;69.20
13436;DHT22;6790;49.520;8.504;2023-06-26T08:21:46;27.70;69.30
13436;DHT22;6790;49.520;8.504;2023-06-26T08:24:12;27.70;67.80
13436;DHT22;6790;49.520;8.504;2023-06-26T08:26:39;28.00;69.80
13436;DHT22;6790;49.520;8.504;2023-06-26T08:29:05;28.30;68.10
13436;DHT22;6790;49.520;8.504;2023-06-26T08:31:36;28.70;67.30
13436;DHT22;6790;49.520;8.504;2023-06-26T08:34:03;28.60;58.60
13436;DHT22;6790;49.520;8.504;2023-06-26T08:36:29;28.80;59.10
13436;DHT22;6790;49.520;8.504;2023-06-26T08:38:55;28.70;61.00
13436;DHT22;6790;49.520;8.504;2023-06-26T08:41:21;28.70;62.80
13436;DHT22;6790;49.520;8.504;2023-06-26T08:43:47;28.30;63.70
13436;DHT22;6790;49.520;8.504;2023-06-26T08:46:14;28.10;60.10
13436;DHT22;6790;49.520;8.504;2023-06-26T08:48:42;27.80;63.60
13436;DHT22;6790;49.520;8.504;2023-06-26T08:51:13;27.80;65.90
13436;DHT22;6790;49.520;8.504;2023-06-26T08:54:01;28.00;57.90
13436;DHT22;6790;49.520;8.504;2023-06-26T08:56:32;27.90;64.40
13436;DHT22;6790;49.520;8.504;2023-06-26T08:59:01;28.00;59.40
13436;DHT22;6790;49.520;8.504;2023-06-26T09:01:27;28.60;56.80
13436;DHT22;6790;49.520;8.504;2023-06-26T09:03:53;29.00;55.00
13436;DHT22;6790;49.520;8.504;2023-06-26T09:06:19;29.00;54.80
13436;DHT22;6790;49.520;8.504;2023-06-26T09:08:45;29.30;51.80
13436;DHT22;6790;49.520;8.504;2023-06-26T09:11:11;29.50;53.70
13436;DHT22;6790;49.520;8.504;2023-06-26T09:13:37;29.70;50.70
13436;DHT22;6790;49.520;8.504;2023-06-26T09:16:07;29.70;48.60
13436;DHT22;6790;49.520;8.504;2023-06-26T09:18:36;29.80;47.70
13436;DHT22;6790;49.520;8.504;2023-06-26T09:21:06;29.90;46.80
13436;DHT22;6790;49.520;8.504;2023-06-26T09:23:34;29.90;46.80
13436;DHT22;6790;49.520;8.504;2023-06-26T09:26:03;30.10;46.40
13436;DHT22;6790;49.520;8.504;2023-06-26T09:28:30;30.20;46.40
13436;DHT22;6790;49.520;8.504;2023-06-26T09:31:01;30.20;45.20
13436;DHT22;6790;49.520;8.504;2023-06-26T09:33:33;30.30;45.30
13436;DHT22;6790;49.520;8.504;2023-06-26T09:36:02;30.30;44.00
13436;DHT22;6790;49.520;8.504;2023-06-26T09:38:30;30.20;46.40
13436;DHT22;6790;49.520;8.504;2023-06-26T09:40:56;30.30;47.50
13436;DHT22;6790;49.520;8.504;2023-06-26T09:43:22;30.30;46.80
13436;DHT22;6790;49.520;8.504;2023-06-26T09:45:48;30.60;46.20
13436;DHT22;6790;49.520;8.504;2023-06-26T09:48:14;30.70;47.80
13436;DHT22;6790;49.520;8.504;2023-06-26T09:50:41;30.60;45.00
13436;DHT22;6790;49.520;8.504;2023-06-26T09:53:11;30.70;45.90
13436;DHT22;6790;49.520;8.504;2023-06-26T09:55:43;30.90;45.40
13436;DHT22;6790;49.520;8.504;2023-06-26T09:58:12;31.10;43.30
13436;DHT22;6790;49.520;8.504;2023-06-26T10:00:41;30.80;46.20
13436;DHT22;6790;49.520;8.504;2023-06-26T10:03:08;31.10;44.70
13436;DHT22;6790;49.520;8.504;2023-06-26T10:05:33;31.20;46.50
13436;DHT22;6790;49.520;8.504;2023-06-26T10:08:01;31.00;44.70
13436;DHT22;6790;49.520;8.504;2023-06-26T10:10:28;30.40;46.10
13436;DHT22;6790;49.520;8.504;2023-06-26T10:12:59;29.90;48.70
13436;DHT22;6790;49.520;8.504;2023-06-26T10:15:29;29.60;52.60
13436;DHT22;6790;49.520;8.504;2023-06-26T10:17:56;29.60;52.60
13436;DHT22;6790;49.520;8.504;2023-06-26T10:20:23;30.10;49.30
13436;DHT22;6790;49.520;8.504;2023-06-26T10:22:50;30.20;47.80
13436;DHT22;6790;49.520;8.504;2023-06-26T10:25:19;30.20;47.80
13436;DHT22;6790;49.520;8.504;2023-06-26T10:27:51;30.00;47.30
13436;DHT22;6790;49.520;8.504;2023-06-26T10:30:23;30.30;49.50
13436;DHT22;6790;49.520;8.504;2023-06-26T10:32:54;30.80;46.50
13436;DHT22;6790;49.520;8.504;2023-06-26T10:35:20;30.50;46.20
13436;DHT22;6790;49.520;8.504;2023-06-26T10:37:48;30.50;49.30
13436;DHT22;6790;49.520;8.504;2023-06-26T10:40:21;30.70;48.90
13436;DHT22;6790;49.520;8.504;2023-06-26T10:42:50;31.10;46.70
13436;DHT22;6790;49.520;8.504;2023-06-26T10:47:48;30.30;50.60
13436;DHT22;6790;49.520;8.504;2023-06-26T10:50:24;30.00;52.50
13436;DHT22;6790;49.520;8.504;2023-06-26T10:55:36;29.70;50.30
13436;DHT22;6790;49.520;8.504;2023-06-26T10:58:02;29.90;49.90
13436;DHT22;6790;49.520;8.504;2023-06-26T11:00:28;29.80;50.50
13436;DHT22;6790;49.520;8.504;2023-06-26T11:02:54;30.10;48.60
13436;DHT22;6790;49.520;8.504;2023-06-26T11:05:27;29.90;50.30
13436;DHT22;6790;49.520;8.504;2023-06-26T11:08:06;30.30;52.90
13436;DHT22;6790;49.520;8.504;2023-06-26T11:10:51;30.00;49.80
13436;DHT22;6790;49.520;8.504;2023-06-26T11:13:19;30.00;50.90
13436;DHT22;6790;49.520;8.504;2023-06-26T11:15:49;30.40;52.60
13436;DHT22;6790;49.520;8.504;2023-06-26T11:18:15;30.70;49.00
13436;DHT22;6790;49.520;8.504;2023-06-26T11:20:41;30.90;47.70
13436;DHT22;6790;49.520;8.504;2023-06-26T11:23:08;31.00;51.30
13436;DHT22;6790;49.520;8.504;2023-06-26T11:25:38;31.10;49.70
13436;DHT22;6790;49.520;8.504;2023-06-26T11:28:09;31.10;51.90
13436;DHT22;6790;49.520;8.504;2023-06-26T11:30:36;31.40;48.50
13436;DHT22;6790;49.520;8.504;2023-06-26T11:33:06;31.30;48.70
13436;DHT22;6790;49.520;8.504;2023-06-26T11:35:33;31.80;47.30
13436;DHT22;6790;49.520;8.504;2023-06-26T11:38:00;32.20;43.20
13436;DHT22;6790;49.520;8.504;2023-06-26T11:40:32;31.40;47.50
13436;DHT22;6790;49.520;8.504;2023-06-26T11:42:58;31.00;43.50
13436;DHT22;6790;49.520;8.504;2023-06-26T11:45:29;30.60;44.70
13436;DHT22;6790;49.520;8.504;2023-06-26T11:47:56;30.70;45.10
13436;DHT22;6790;49.520;8.504;2023-06-26T11:50:22;31.20;44.40
13436;DHT22;6790;49.520;8.504;2023-06-26T11:52:59;31.50;43.60
13436;DHT22;6790;49.520;8.504;2023-06-26T11:55:27;32.00;40.50
13436;DHT22;6790;49.520;8.504;2023-06-26T11:57:54;32.20;38.00
13436;DHT22;6790;49.520;8.504;2023-06-26T12:00:21;31.30;38.20
13436;DHT22;6790;49.520;8.504;2023-06-26T12:02:47;31.00;40.50
13436;DHT22;6790;49.520;8.504;2023-06-26T12:05:14;31.10;42.60
13436;DHT22;6790;49.520;8.504;2023-06-26T12:07:42;31.80;39.00
13436;DHT22;6790;49.520;8.504;2023-06-26T12:10:10;32.00;37.80
13436;DHT22;6790;49.520;8.504;2023-06-26T12:12:37;32.40;38.70
13436;DHT22;6790;49.520;8.504;2023-06-26T12:15:05;32.50;37.40
13436;DHT22;6790;49.520;8.504;2023-06-26T12:17:31;32.70;33.90
13436;DHT22;6790;49.520;8.504;2023-06-26T12:19:57;32.30;32.50
13436;DHT22;6790;49.520;8.504;2023-06-26T12:22:23;32.20;32.20
13436;DHT22;6790;49.520;8.504;2023-06-26T12:24:48;32.10;30.40
13436;DHT22;6790;49.520;8.504;2023-06-26T12:30:46;32.10;30.00
13436;DHT22;6790;49.520;8.504;2023-06-26T12:33:14;32.00;29.50
13436;DHT22;6790;49.520;8.504;2023-06-26T12:35:41;32.10;31.30
13436;DHT22;6790;49.520;8.504;2023-06-26T12:38:08;32.00;28.70
13436;DHT22;6790;49.520;8.504;2023-06-26T12:40:45;32.00;29.20
13436;DHT22;6790;49.520;8.504;2023-06-26T12:43:21;31.90;27.60
13436;DHT22;6790;49.520;8.504;2023-06-26T12:45:48;32.20;30.00
13436;DHT22;6790;49.520;8.504;2023-06-26T12:48:14;32.00;29.80
13436;DHT22;6790;49.520;8.504;2023-06-26T12:50:46;32.10;27.30
13436;DHT22;6790;49.520;8.504;2023-06-26T12:53:11;32.30;28.20
13436;DHT22;6790;49.520;8.504;2023-06-26T12:55:37;32.50;26.60
13436;DHT22;6790;49.520;8.504;2023-06-26T12:58:03;32.40;27.40
13436;DHT22;6790;49.520;8.504;2023-06-26T13:00:29;31.80;27.20
13436;DHT22;6790;49.520;8.504;2023-06-26T13:02:55;31.60;26.50
13436;DHT22;6790;49.520;8.504;2023-06-26T13:05:21;31.50;26.80
13436;DHT22;6790;49.520;8.504;2023-06-26T13:07:47;31.60;27.80
13436;DHT22;6790;49.520;8.504;2023-06-26T13:10:13;31.80;26.00
13436;DHT22;6790;49.520;8.504;2023-06-26T13:12:38;31.90;26.20
13436;DHT22;6790;49.520;8.504;2023-06-26T13:15:04;31.80;29.00
13436;DHT22;6790;49.520;8.504;2023-06-26T13:17:31;32.00;28.90
13436;DHT22;6790;49.520;8.504;2023-06-26T13:19:57;32.00;26.90
13436;DHT22;6790;49.520;8.504;2023-06-26T13:22:23;31.80;29.40
13436;DHT22;6790;49.520;8.504;2023-06-26T13:24:49;32.00;28.00
13436;DHT22;6790;49.520;8.504;2023-06-26T13:27:14;32.20;27.50
13436;DHT22;6790;49.520;8.504;2023-06-26T13:29:41;31.70;28.30
13436;DHT22;6790;49.520;8.504;2023-06-26T13:32:07;31.20;29.30
13436;DHT22;6790;49.520;8.504;2023-06-26T13:34:33;31.60;28.60
13436;DHT22;6790;49.520;8.504;2023-06-26T13:36:59;31.80;27.70
13436;DHT22;6790;49.520;8.504;2023-06-26T13:39:25;31.90;27.00
13436;DHT22;6790;49.520;8.504;2023-06-26T13:41:51;31.80;28.20
13436;DHT22;6790;49.520;8.504;2023-06-26T13:44:16;31.70;30.50
13436;DHT22;6790;49.520;8.504;2023-06-26T13:46:42;31.80;27.50
13436;DHT22;6790;49.520;8.504;2023-06-26T13:49:08;31.80;27.30
13436;DHT22;6790;49.520;8.504;2023-06-26T13:51:34;31.60;27.80
13436;DHT22;6790;49.520;8.504;2023-06-26T13:53:59;31.60;27.70
13436;DHT22;6790;49.520;8.504;2023-06-26T13:56:26;31.50;27.90
13436;DHT22;6790;49.520;8.504;2023-06-26T13:58:53;31.20;28.10
13436;DHT22;6790;49.520;8.504;2023-06-26T14:01:19;30.80;27.40
13436;DHT22;6790;49.520;8.504;2023-06-26T14:03:45;30.70;28.60
13436;DHT22;6790;49.520;8.504;2023-06-26T14:06:11;30.60;28.90
13436;DHT22;6790;49.520;8.504;2023-06-26T14:08:36;30.90;32.00
13436;DHT22;6790;49.520;8.504;2023-06-26T14:11:02;31.10;27.70
13436;DHT22;6790;49.520;8.504;2023-06-26T14:13:28;30.90;26.70
13436;DHT22;6790;49.520;8.504;2023-06-26T14:15:53;30.70;26.20
13436;DHT22;6790;49.520;8.504;2023-06-26T14:18:19;30.50;27.10
13436;DHT22;6790;49.520;8.504;2023-06-26T14:20:46;30.10;26.10
13436;DHT22;6790;49.520;8.504;2023-06-26T14:23:12;30.00;26.50
13436;DHT22;6790;49.520;8.504;2023-06-26T14:25:38;30.00;25.50
13436;DHT22;6790;49.520;8.504;2023-06-26T14:28:03;30.00;24.10
13436;DHT22;6790;49.520;8.504;2023-06-26T14:30:29;30.00;22.10
13436;DHT22;6790;49.520;8.504;2023-06-26T14:32:55;29.80;22.80
13436;DHT22;6790;49.520;8.504;2023-06-26T14:35:20;29.90;22.30
13436;DHT22;6790;49.520;8.504;2023-06-26T14:37:48;29.80;25.40
13436;DHT22;6790;49.520;8.504;2023-06-26T14:40:13;29.80;25.90
13436;DHT22;6790;49.520;8.504;2023-06-26T14:42:39;29.50;24.40
13436;DHT22;6790;49.520;8.504;2023-06-26T14:45:05;29.60;24.30
13436;DHT22;6790;49.520;8.504;2023-06-26T14:47:31;29.90;23.20
13436;DHT22;6790;49.520;8.504;2023-06-26T14:49:58;29.80;23.10
13436;DHT22;6790;49.520;8.504;2023-06-26T14:52:24;30.00;23.30
13436;DHT22;6790;49.520;8.504;2023-06-26T14:54:49;30.10;23.70
13436;DHT22;6790;49.520;8.504;2023-06-26T14:57:15;30.10;23.70
13436;DHT22;6790;49.520;8.504;2023-06-26T14:59:42;30.20;22.30
13436;DHT22;6790;49.520;8.504;2023-06-26T15:02:07;30.20;23.70
13436;DHT22;6790;49.520;8.504;2023-06-26T15:04:33;30.10;24.20
13436;DHT22;6790;49.520;8.504;2023-06-26T15:06:59;30.00;23.50
13436;DHT22;6790;49.520;8.504;2023-06-26T15:09:24;30.00;24.00
13436;DHT22;6790;49.520;8.504;2023-06-26T15:11:50;30.00;25.20
13436;DHT22;6790;49.520;8.504;2023-06-26T15:14:16;29.70;23.10
13436;DHT22;6790;49.520;8.504;2023-06-26T15:16:41;29.60;23.50
13436;DHT22;6790;49.520;8.504;2023-06-26T15:19:07;29.30;23.50
13436;DHT22;6790;49.520;8.504;2023-06-26T15:21:34;29.00;23.10
13436;DHT22;6790;49.520;8.504;2023-06-26T15:24:00;29.10;24.10
13436;DHT22;6790;49.520;8.504;2023-06-26T15:26:25;29.00;24.20
13436;DHT22;6790;49.520;8.504;2023-06-26T15:28:51;29.10;24.80
13436;DHT22;6790;49.520;8.504;2023-06-26T15:31:19;29.20;27.40
13436;DHT22;6790;49.520;8.504;2023-06-26T15:33:45;29.40;24.40
13436;DHT22;6790;49.520;8.504;2023-06-26T15:36:11;29.30;25.90
13436;DHT22;6790;49.520;8.504;2023-06-26T15:38:36;29.20;23.90
13436;DHT22;6790;49.520;8.504;2023-06-26T15:41:02;29.30;24.80
13436;DHT22;6790;49.520;8.504;2023-06-26T15:43:28;29.40;25.20
13436;DHT22;6790;49.520;8.504;2023-06-26T15:45:54;29.40;24.00
13436;DHT22;6790;49.520;8.504;2023-06-26T15:48:19;29.40;25.30
13436;DHT22;6790;49.520;8.504;2023-06-26T15:50:45;29.50;24.30
13436;DHT22;6790;49.520;8.504;2023-06-26T15:53:16;29.50;23.90
13436;DHT22;6790;49.520;8.504;2023-06-26T15:55:43;29.40;24.10
13436;DHT22;6790;49.520;8.504;2023-06-26T15:58:09;29.40;26.00
13436;DHT22;6790;49.520;8.504;2023-06-26T16:00:34;29.20;24.40